In Rescue
 
Open Full Screen Window  High Contrast Mode
Wind Gusting 00 knots
04
January 28, 2020 11:10 PM CST
Weather Information
Wind Direction
  140 °
Wind Speed
  04 kt (5 mph)
Wind Gust
  00 kt (0 mph)
Altimeter
30.14 in
Visibility
10 SM
Temperature
-12° C
10° F
Dewpoint
-14° C
F
Humidity
85%
1hr Rain Fall
00.00 in.
24hr Rain Fall
00.00 in.
Sky Condition
Clear
VFR

METAR KBJI 290510Z AUTO 14004KT 10SM CLR M12/M14 A3014 RMK AO2 T11221141

FAA Disclaimer: The data displayed is for advisory purposes only and is not to be used for flight planning or operations.